createdAt,value
2019-03-16T00:00:49.318Z,10.20
2019-03-16T00:03:18.636Z,10.30
2019-03-16T00:05:48.015Z,10.20
2019-03-16T00:08:17.330Z,10.20
2019-03-16T00:10:46.487Z,10.20
2019-03-16T00:13:16.459Z,10.30
2019-03-16T00:15:46.012Z,10.20
2019-03-16T00:18:15.394Z,10.30
2019-03-16T00:20:44.674Z,10.20
2019-03-16T00:23:13.859Z,10.30
2019-03-16T00:25:43.067Z,10.30
2019-03-16T00:28:12.570Z,10.30
2019-03-16T00:30:41.820Z,10.30
2019-03-16T00:33:11.298Z,10.20
2019-03-16T00:35:40.672Z,10.20
2019-03-16T00:38:10.034Z,10.30
2019-03-16T00:40:39.292Z,10.30
2019-03-16T00:43:08.554Z,10.30
2019-03-16T00:45:38.406Z,10.30
2019-03-16T00:48:07.748Z,10.30
2019-03-16T00:50:36.885Z,10.30
2019-03-16T00:53:06.281Z,10.30
2019-03-16T00:55:35.564Z,10.30
2019-03-16T00:58:04.841Z,10.30
2019-03-16T01:00:34.066Z,10.30
2019-03-16T01:03:03.372Z,10.30
2019-03-16T01:05:32.567Z,10.30
2019-03-16T01:08:01.801Z,10.20
2019-03-16T01:10:31.014Z,10.20
2019-03-16T01:13:00.225Z,10.30
2019-03-16T01:15:31.765Z,10.20
2019-03-16T01:18:00.907Z,10.20
2019-03-16T01:20:30.157Z,10.20
2019-03-16T01:22:59.307Z,10.20
2019-03-16T01:25:28.429Z,10.20
2019-03-16T01:27:57.590Z,10.20
2019-03-16T01:30:26.725Z,10.20
2019-03-16T01:32:55.879Z,10.20
2019-03-16T01:35:25.079Z,10.20
2019-03-16T01:37:54.243Z,10.20
2019-03-16T01:40:23.385Z,10.20
2019-03-16T01:42:52.644Z,10.20
2019-03-16T01:45:21.853Z,10.10
2019-03-16T01:47:51.019Z,10.10
2019-03-16T01:50:21.689Z,10.10
2019-03-16T01:52:51.308Z,10.00
2019-03-16T01:55:20.523Z,10.00
2019-03-16T01:57:49.699Z,10.00
2019-03-16T02:00:18.904Z,10.00
2019-03-16T02:02:54.873Z,10.00
2019-03-16T02:05:19.163Z,10.00
2019-03-16T02:07:48.426Z,10.00
2019-03-16T02:10:17.657Z,10.00
2019-03-16T02:12:46.971Z,10.00
2019-03-16T02:15:16.129Z,10.00
2019-03-16T02:17:45.300Z,10.00
2019-03-16T02:20:14.559Z,10.00
2019-03-16T02:22:43.759Z,10.00
2019-03-16T02:25:12.955Z,10.00
2019-03-16T02:27:42.151Z,10.00
2019-03-16T02:30:11.319Z,9.90
2019-03-16T02:32:40.629Z,9.90
2019-03-16T02:35:09.874Z,9.90
2019-03-16T02:37:39.072Z,9.90
2019-03-16T02:40:08.484Z,9.80
2019-03-16T02:42:37.616Z,9.80
2019-03-16T02:45:06.733Z,9.80
2019-03-16T02:47:35.973Z,9.80
2019-03-16T02:50:05.507Z,9.80
2019-03-16T02:52:34.689Z,9.80
2019-03-16T02:55:04.112Z,9.70
2019-03-16T02:57:33.357Z,9.70
2019-03-16T03:00:02.987Z,9.80
2019-03-16T03:02:32.205Z,9.70
2019-03-16T03:05:01.444Z,9.70
2019-03-16T03:07:30.588Z,9.70
2019-03-16T03:09:59.719Z,9.60
2019-03-16T03:12:28.868Z,9.60
2019-03-16T03:14:58.002Z,9.60
2019-03-16T03:17:27.131Z,9.60
2019-03-16T03:19:56.300Z,9.50
2019-03-16T03:22:25.443Z,9.50
2019-03-16T03:24:54.674Z,9.60
2019-03-16T03:27:23.943Z,9.60
2019-03-16T03:29:57.090Z,9.60
2019-03-16T03:32:24.012Z,9.60
2019-03-16T03:34:53.260Z,9.60
2019-03-16T03:37:22.397Z,9.50
2019-03-16T03:39:51.634Z,9.50
2019-03-16T03:42:20.814Z,9.50
2019-03-16T03:44:50.007Z,9.50
2019-03-16T03:47:19.125Z,9.40
2019-03-16T03:49:48.300Z,9.40
2019-03-16T03:52:17.660Z,9.40
2019-03-16T03:54:46.880Z,9.40
2019-03-16T03:57:16.150Z,9.40
2019-03-16T03:59:45.316Z,9.50
2019-03-16T04:02:14.563Z,9.50
2019-03-16T04:04:43.719Z,9.50
2019-03-16T04:07:13.022Z,9.50
2019-03-16T04:09:42.152Z,9.50
2019-03-16T04:12:11.367Z,9.50
2019-03-16T04:14:40.489Z,9.50
2019-03-16T04:17:09.636Z,9.50
2019-03-16T04:19:38.769Z,9.60
2019-03-16T04:22:07.972Z,9.50
2019-03-16T04:24:37.194Z,9.60
2019-03-16T04:27:15.960Z,9.60
2019-03-16T04:29:37.386Z,9.60
2019-03-16T04:32:06.603Z,9.60
2019-03-16T04:34:35.835Z,9.60
2019-03-16T04:37:04.959Z,9.50
2019-03-16T04:39:34.125Z,9.50
2019-03-16T04:42:03.257Z,9.50
2019-03-16T04:44:32.492Z,9.50
2019-03-16T04:47:01.635Z,9.50
2019-03-16T04:49:30.791Z,9.40
2019-03-16T04:52:00.184Z,9.40
2019-03-16T04:54:29.486Z,9.40
2019-03-16T04:56:58.682Z,9.40
2019-03-16T04:59:27.895Z,9.40
2019-03-16T05:01:57.119Z,9.30
2019-03-16T05:04:26.279Z,9.40
2019-03-16T05:06:55.414Z,9.40
2019-03-16T05:09:24.579Z,9.40
2019-03-16T05:11:53.814Z,9.40
2019-03-16T05:14:23.016Z,9.40
2019-03-16T05:16:52.279Z,9.50
2019-03-16T05:19:21.514Z,9.40
2019-03-16T05:21:50.711Z,9.40
2019-03-16T05:24:19.847Z,9.40
2019-03-16T05:26:49.134Z,9.40
2019-03-16T05:29:18.267Z,9.40
2019-03-16T05:31:50.571Z,9.40
2019-03-16T05:34:18.295Z,9.40
2019-03-16T05:36:47.513Z,9.40
2019-03-16T05:39:16.667Z,9.40
2019-03-16T05:41:45.933Z,9.50
2019-03-16T05:44:15.100Z,9.50
2019-03-16T05:46:44.390Z,9.50
2019-03-16T05:49:13.574Z,9.50
2019-03-16T05:51:42.823Z,9.50
2019-03-16T05:54:12.057Z,9.50
2019-03-16T05:56:41.213Z,9.60
2019-03-16T05:59:10.514Z,9.60
2019-03-16T06:01:39.761Z,9.60
2019-03-16T06:04:08.942Z,9.70
2019-03-16T06:06:38.150Z,9.70
2019-03-16T06:09:08.038Z,9.80
2019-03-16T06:11:37.277Z,9.80
2019-03-16T06:14:06.482Z,9.90
2019-03-16T06:16:35.673Z,9.90
2019-03-16T06:19:04.852Z,9.90
2019-03-16T06:21:34.001Z,9.90
2019-03-16T06:24:03.242Z,9.90
2019-03-16T06:26:32.450Z,10.00
2019-03-16T06:29:01.705Z,10.00
2019-03-16T06:31:31.015Z,10.00
2019-03-16T06:34:00.266Z,10.00
2019-03-16T06:36:29.477Z,10.00
2019-03-16T06:38:58.722Z,10.00
2019-03-16T06:41:27.938Z,10.10
2019-03-16T06:43:57.208Z,10.10
2019-03-16T06:46:26.421Z,10.10
2019-03-16T06:48:55.700Z,10.10
2019-03-16T06:51:27.065Z,10.10
2019-03-16T06:53:56.312Z,10.10
2019-03-16T06:56:25.534Z,10.30
2019-03-16T06:58:54.778Z,10.30
2019-03-16T07:01:24.082Z,10.30
2019-03-16T07:03:53.332Z,10.30
2019-03-16T07:06:22.559Z,10.30
2019-03-16T07:08:51.714Z,10.20
2019-03-16T07:11:20.950Z,10.30
2019-03-16T07:13:50.180Z,10.30
2019-03-16T07:16:19.364Z,10.30
2019-03-16T07:18:58.210Z,10.40
2019-03-16T07:21:19.487Z,10.40
2019-03-16T07:23:48.722Z,10.50
2019-03-16T07:26:17.997Z,10.50
2019-03-16T07:28:47.163Z,10.60
2019-03-16T07:31:16.375Z,10.70
2019-03-16T07:33:45.617Z,10.80
2019-03-16T07:36:14.814Z,10.80
2019-03-16T07:38:44.114Z,10.90
2019-03-16T07:41:13.360Z,10.90
2019-03-16T07:43:42.532Z,10.90
2019-03-16T07:46:11.770Z,11.00
2019-03-16T07:48:41.010Z,11.00
2019-03-16T07:51:10.206Z,11.10
2019-03-16T07:53:39.414Z,11.00
2019-03-16T07:56:08.672Z,11.00
2019-03-16T07:58:37.982Z,10.90
2019-03-16T08:01:07.135Z,10.90
2019-03-16T08:03:36.389Z,10.90
2019-03-16T08:06:05.680Z,11.00
2019-03-16T08:08:34.861Z,11.00
2019-03-16T08:11:04.014Z,11.10
2019-03-16T08:13:33.212Z,11.10
2019-03-16T08:16:02.462Z,11.20
2019-03-16T08:18:31.728Z,11.20
2019-03-16T08:21:00.956Z,11.30
2019-03-16T08:23:30.309Z,11.30
2019-03-16T08:25:59.526Z,11.30
2019-03-16T08:28:28.664Z,11.30
2019-03-16T08:30:57.818Z,11.50
2019-03-16T08:33:27.106Z,11.60
2019-03-16T08:35:56.486Z,11.60
2019-03-16T08:38:25.688Z,11.50
2019-03-16T08:40:54.862Z,11.60
2019-03-16T08:43:24.158Z,11.50
2019-03-16T08:45:53.400Z,11.60
2019-03-16T08:48:23.422Z,11.70
2019-03-16T08:50:52.857Z,11.80
2019-03-16T08:53:23.049Z,11.80
2019-03-16T08:55:52.655Z,11.80
2019-03-16T08:58:21.873Z,11.80
2019-03-16T09:00:51.224Z,11.80
2019-03-16T09:03:20.396Z,11.70
2019-03-16T09:05:49.638Z,11.70
2019-03-16T09:08:18.922Z,11.60
2019-03-16T09:10:48.125Z,11.60
2019-03-16T09:13:17.419Z,11.50
2019-03-16T09:15:46.738Z,11.50
2019-03-16T09:18:15.916Z,11.50
2019-03-16T09:20:45.219Z,11.50
2019-03-16T09:23:14.552Z,11.50
2019-03-16T09:25:43.910Z,11.40
2019-03-16T09:28:18.466Z,11.40
2019-03-16T09:30:44.073Z,11.40
2019-03-16T09:33:13.553Z,11.50
2019-03-16T09:35:42.881Z,11.50
2019-03-16T09:38:12.170Z,11.50
2019-03-16T09:40:41.395Z,11.60
2019-03-16T09:43:10.668Z,11.60
2019-03-16T09:45:39.834Z,11.60
2019-03-16T09:48:09.107Z,11.70
2019-03-16T09:50:38.369Z,11.80
2019-03-16T09:53:07.575Z,11.90
2019-03-16T09:55:36.904Z,11.90
2019-03-16T09:58:06.198Z,11.90
2019-03-16T10:00:35.452Z,11.90
2019-03-16T10:03:04.759Z,11.90
2019-03-16T10:05:33.953Z,11.90
2019-03-16T10:08:03.194Z,11.90
2019-03-16T10:10:32.451Z,11.80
2019-03-16T10:13:01.632Z,11.80
2019-03-16T10:15:30.827Z,11.80
2019-03-16T10:18:00.099Z,11.80
2019-03-16T10:20:29.347Z,11.80
2019-03-16T10:22:58.648Z,11.80
2019-03-16T10:25:28.817Z,11.90
2019-03-16T10:27:58.103Z,11.90
2019-03-16T10:30:27.278Z,12.00
2019-03-16T10:32:56.505Z,11.90
2019-03-16T10:35:25.741Z,11.90
2019-03-16T10:37:54.956Z,11.90
2019-03-16T10:40:24.190Z,11.80
2019-03-16T10:42:53.351Z,11.90
2019-03-16T10:45:22.621Z,12.00
2019-03-16T10:47:51.857Z,12.00
2019-03-16T10:50:21.083Z,12.00
2019-03-16T10:52:50.336Z,12.20
2019-03-16T10:55:19.675Z,12.20
2019-03-16T10:57:48.855Z,12.20
2019-03-16T11:00:18.135Z,12.20
2019-03-16T11:02:47.411Z,12.20
2019-03-16T11:05:16.813Z,12.30
2019-03-16T11:07:45.995Z,12.20
2019-03-16T11:10:15.184Z,12.20
2019-03-16T11:12:44.459Z,12.30
2019-03-16T11:15:13.759Z,12.40
2019-03-16T11:17:43.062Z,12.50
2019-03-16T11:20:12.349Z,12.60
2019-03-16T11:22:41.664Z,12.80
2019-03-16T11:25:11.169Z,13.10
2019-03-16T11:27:40.385Z,13.40
2019-03-16T11:30:10.951Z,13.40
2019-03-16T11:32:40.134Z,13.30
2019-03-16T11:35:10.261Z,13.60
2019-03-16T11:37:39.570Z,13.90
2019-03-16T11:40:11.164Z,13.80
2019-03-16T11:42:40.417Z,13.50
2019-03-16T11:45:10.071Z,13.20
2019-03-16T11:47:39.584Z,13.30
2019-03-16T11:50:09.392Z,13.30
2019-03-16T11:52:38.651Z,13.10
2019-03-16T11:55:07.874Z,13.00
2019-03-16T11:57:37.102Z,12.90
2019-03-16T12:00:06.653Z,12.80
2019-03-16T12:02:35.941Z,12.80
2019-03-16T12:05:05.747Z,12.70
2019-03-16T12:07:34.927Z,12.50
2019-03-16T12:10:04.384Z,12.50
2019-03-16T12:12:33.611Z,12.40
2019-03-16T12:15:02.907Z,12.40
2019-03-16T12:17:32.157Z,12.30
2019-03-16T12:20:01.349Z,12.30
2019-03-16T12:22:30.689Z,12.30
2019-03-16T12:24:59.975Z,12.20
2019-03-16T12:27:29.142Z,12.20
2019-03-16T12:29:58.311Z,12.20
2019-03-16T12:32:27.507Z,12.40
2019-03-16T12:34:56.819Z,12.80
2019-03-16T12:37:26.095Z,13.30
2019-03-16T12:39:55.275Z,13.50
2019-03-16T12:42:24.479Z,13.60
2019-03-16T12:44:53.691Z,13.60
2019-03-16T12:47:22.927Z,13.80
2019-03-16T12:49:52.127Z,13.80
2019-03-16T12:52:21.313Z,13.70
2019-03-16T12:54:50.527Z,13.90
2019-03-16T12:57:19.724Z,14.80
2019-03-16T12:59:49.035Z,15.20
2019-03-16T13:02:18.369Z,15.50
2019-03-16T13:04:47.497Z,15.00
2019-03-16T13:07:16.700Z,14.30
2019-03-16T13:09:45.935Z,13.80
2019-03-16T13:12:15.195Z,13.70
2019-03-16T13:14:44.363Z,13.70
2019-03-16T13:17:13.621Z,13.50
2019-03-16T13:19:43.115Z,13.60
2019-03-16T13:22:12.327Z,13.70
2019-03-16T13:24:41.599Z,14.10
2019-03-16T13:27:10.722Z,14.50
2019-03-16T13:29:40.027Z,14.70
2019-03-16T13:32:09.405Z,14.50
2019-03-16T13:34:38.666Z,14.40
2019-03-16T13:37:07.937Z,14.10
2019-03-16T13:39:37.251Z,14.00
2019-03-16T13:42:06.479Z,14.10
2019-03-16T13:44:35.863Z,14.10
2019-03-16T13:47:05.117Z,14.10
2019-03-16T13:49:34.291Z,14.00
2019-03-16T13:52:03.552Z,13.90
2019-03-16T13:54:33.233Z,13.80
2019-03-16T13:57:02.681Z,13.90
2019-03-16T13:59:32.079Z,14.10
2019-03-16T14:02:01.394Z,14.30
2019-03-16T14:04:31.017Z,14.30
2019-03-16T14:07:00.318Z,14.40
2019-03-16T14:09:29.607Z,14.20
2019-03-16T14:11:59.159Z,14.30
2019-03-16T14:14:28.388Z,14.40
2019-03-16T14:16:57.588Z,14.40
2019-03-16T14:19:26.849Z,14.60
2019-03-16T14:21:56.197Z,14.60
2019-03-16T14:24:25.698Z,14.30
2019-03-16T14:26:55.416Z,14.10
2019-03-16T14:29:24.689Z,14.20
2019-03-16T14:31:53.953Z,14.30
2019-03-16T14:34:23.163Z,14.20
2019-03-16T14:36:52.438Z,14.10
2019-03-16T14:39:21.707Z,14.00
2019-03-16T14:41:51.024Z,14.00
2019-03-16T14:44:20.654Z,14.00
2019-03-16T14:46:49.967Z,14.10
2019-03-16T14:49:19.220Z,14.20
2019-03-16T14:51:48.553Z,14.20
2019-03-16T14:54:17.856Z,14.10
2019-03-16T14:56:47.063Z,14.10
2019-03-16T14:59:16.401Z,14.10
2019-03-16T15:01:45.691Z,14.20
2019-03-16T15:04:14.966Z,14.20
2019-03-16T15:06:44.315Z,14.20
2019-03-16T15:09:13.516Z,14.40
2019-03-16T15:11:42.832Z,14.80
2019-03-16T15:14:21.082Z,14.90
2019-03-16T15:16:42.883Z,14.80
2019-03-16T15:19:12.088Z,14.90
2019-03-16T15:21:41.354Z,14.80
2019-03-16T15:24:10.539Z,14.40
2019-03-16T15:26:39.766Z,14.00
2019-03-16T15:29:09.096Z,13.70
2019-03-16T15:31:38.346Z,13.60
2019-03-16T15:34:07.571Z,13.60
2019-03-16T15:36:36.825Z,13.70
2019-03-16T15:39:08.083Z,13.80
2019-03-16T15:41:37.334Z,13.90
2019-03-16T15:44:06.576Z,13.90
2019-03-16T15:46:35.848Z,13.90
2019-03-16T15:49:05.060Z,14.00
2019-03-16T15:51:34.203Z,14.20
2019-03-16T15:54:03.366Z,14.30
2019-03-16T15:56:32.588Z,14.50
2019-03-16T15:59:01.716Z,14.70
2019-03-16T16:01:30.962Z,14.90
2019-03-16T16:04:00.182Z,14.90
2019-03-16T16:06:29.318Z,14.90
2019-03-16T16:08:58.519Z,14.80
2019-03-16T16:11:27.851Z,14.90
2019-03-16T16:13:57.157Z,14.90
2019-03-16T16:16:26.446Z,14.90
2019-03-16T16:18:55.697Z,14.80
2019-03-16T16:21:24.916Z,14.80
2019-03-16T16:23:54.072Z,14.80
2019-03-16T16:26:23.368Z,14.90
2019-03-16T16:28:52.693Z,14.80
2019-03-16T16:31:21.864Z,14.80
2019-03-16T16:33:51.093Z,14.80
2019-03-16T16:36:20.271Z,14.70
2019-03-16T16:38:49.454Z,14.70
2019-03-16T16:41:18.626Z,14.50
2019-03-16T16:43:47.962Z,14.30
2019-03-16T16:46:17.199Z,14.40
2019-03-16T16:48:46.495Z,14.30
2019-03-16T16:51:15.680Z,14.30
2019-03-16T16:53:44.879Z,14.30
2019-03-16T16:56:14.115Z,14.10
2019-03-16T16:58:43.289Z,13.90
2019-03-16T17:01:12.451Z,13.80
2019-03-16T17:03:41.622Z,13.60
2019-03-16T17:06:10.780Z,13.40
2019-03-16T17:08:39.992Z,13.20
2019-03-16T17:11:09.154Z,13.00
2019-03-16T17:13:38.335Z,12.80
2019-03-16T17:16:07.496Z,12.70
2019-03-16T17:18:36.700Z,12.60
2019-03-16T17:21:06.009Z,12.50
2019-03-16T17:23:35.246Z,12.30
2019-03-16T17:26:04.506Z,12.20
2019-03-16T17:28:33.774Z,12.00
2019-03-16T17:31:05.426Z,11.90
2019-03-16T17:33:34.658Z,11.70
2019-03-16T17:36:03.942Z,11.60
2019-03-16T17:38:33.172Z,11.50
2019-03-16T17:41:02.386Z,11.30
2019-03-16T17:43:31.655Z,11.20
2019-03-16T17:46:00.812Z,11.20
2019-03-16T17:48:30.018Z,11.10
2019-03-16T17:50:59.263Z,11.10
2019-03-16T17:53:28.477Z,11.10
2019-03-16T17:55:57.655Z,11.20
2019-03-16T17:58:26.873Z,11.30
2019-03-16T18:00:56.091Z,11.20
2019-03-16T18:03:25.336Z,11.20
2019-03-16T18:05:54.500Z,11.20
2019-03-16T18:08:23.731Z,11.10
2019-03-16T18:10:52.911Z,11.10
2019-03-16T18:13:22.136Z,11.00
2019-03-16T18:15:51.348Z,11.00
2019-03-16T18:18:20.609Z,10.90
2019-03-16T18:20:49.806Z,10.80
2019-03-16T18:23:19.180Z,10.70
2019-03-16T18:25:48.435Z,10.70
2019-03-16T18:28:17.723Z,10.70
2019-03-16T18:30:46.916Z,10.60
2019-03-16T18:33:16.280Z,10.50
2019-03-16T18:35:45.608Z,10.40
2019-03-16T18:38:14.969Z,10.40
2019-03-16T18:40:44.207Z,10.30
2019-03-16T18:43:13.551Z,10.10
2019-03-16T18:45:42.710Z,9.90
2019-03-16T18:48:12.043Z,9.70
2019-03-16T18:50:41.308Z,9.60
2019-03-16T18:53:10.548Z,9.60
2019-03-16T18:55:39.870Z,9.50
2019-03-16T18:58:09.266Z,9.40
2019-03-16T19:00:38.598Z,9.40
2019-03-16T19:03:07.888Z,9.20
2019-03-16T19:05:37.236Z,9.10
2019-03-16T19:08:06.484Z,9.10
2019-03-16T19:10:35.827Z,9.00
2019-03-16T19:13:05.139Z,8.90
2019-03-16T19:15:34.352Z,8.80
2019-03-16T19:18:03.589Z,8.90
2019-03-16T19:20:32.817Z,8.80
2019-03-16T19:23:02.190Z,8.80
2019-03-16T19:25:31.476Z,8.70
2019-03-16T19:28:00.655Z,8.50
2019-03-16T19:30:29.921Z,8.40
2019-03-16T19:32:59.270Z,8.30
2019-03-16T19:35:28.515Z,8.30
2019-03-16T19:37:57.823Z,8.30
2019-03-16T19:40:27.124Z,8.40
2019-03-16T19:42:56.370Z,8.40
2019-03-16T19:45:25.698Z,8.30
2019-03-16T19:47:54.973Z,8.20
2019-03-16T19:50:24.214Z,8.00
2019-03-16T19:52:53.451Z,7.90
2019-03-16T19:55:22.604Z,7.90
2019-03-16T19:57:51.768Z,7.80
2019-03-16T20:00:21.012Z,7.80
2019-03-16T20:02:51.674Z,7.70
2019-03-16T20:05:21.211Z,7.70
2019-03-16T20:07:50.489Z,7.70
2019-03-16T20:10:19.680Z,7.60
2019-03-16T20:12:49.050Z,7.60
2019-03-16T20:15:18.352Z,7.60
2019-03-16T20:17:47.662Z,7.50
2019-03-16T20:20:17.040Z,7.50
2019-03-16T20:22:46.270Z,7.50
2019-03-16T20:25:15.502Z,7.40
2019-03-16T20:27:44.778Z,7.40
2019-03-16T20:30:14.071Z,7.30
2019-03-16T20:32:43.319Z,7.30
2019-03-16T20:35:12.587Z,7.30
2019-03-16T20:37:41.853Z,7.20
2019-03-16T20:40:11.286Z,7.20
2019-03-16T20:42:40.635Z,7.20
2019-03-16T20:45:10.082Z,7.20
2019-03-16T20:47:39.324Z,7.10
2019-03-16T20:50:09.328Z,7.00
2019-03-16T20:52:38.623Z,6.90
2019-03-16T20:55:08.118Z,6.80
2019-03-16T20:57:37.278Z,6.70
2019-03-16T21:00:07.324Z,6.70
2019-03-16T21:02:36.626Z,6.70
2019-03-16T21:05:06.651Z,6.60
2019-03-16T21:07:35.926Z,6.60
2019-03-16T21:10:05.516Z,6.60
2019-03-16T21:12:34.711Z,6.50
2019-03-16T21:15:04.160Z,6.50
2019-03-16T21:17:33.421Z,6.50
2019-03-16T21:20:02.682Z,6.40
2019-03-16T21:22:36.357Z,6.30
2019-03-16T21:25:02.900Z,6.20
2019-03-16T21:27:32.227Z,6.10
2019-03-16T21:30:01.553Z,6.20
2019-03-16T21:32:30.795Z,6.10
2019-03-16T21:34:59.997Z,6.10
2019-03-16T21:37:29.277Z,6.00
2019-03-16T21:39:58.509Z,5.90
2019-03-16T21:42:27.768Z,5.90
2019-03-16T21:44:56.940Z,5.80
2019-03-16T21:47:26.172Z,5.80
2019-03-16T21:49:55.406Z,5.70
2019-03-16T21:52:24.905Z,5.70
2019-03-16T21:54:54.073Z,5.80
2019-03-16T21:57:23.372Z,5.80
2019-03-16T21:59:52.775Z,5.60
2019-03-16T22:02:22.073Z,5.70
2019-03-16T22:04:51.471Z,5.60
2019-03-16T22:07:20.751Z,5.60
2019-03-16T22:09:49.987Z,5.60
2019-03-16T22:12:19.309Z,5.60
2019-03-16T22:14:48.592Z,5.60
2019-03-16T22:17:17.878Z,5.60
2019-03-16T22:19:47.135Z,5.40
2019-03-16T22:22:16.298Z,5.30
2019-03-16T22:24:45.558Z,5.20
2019-03-16T22:27:14.795Z,5.20
2019-03-16T22:29:44.065Z,5.20
2019-03-16T22:32:13.239Z,5.20
2019-03-16T22:34:42.485Z,5.20
2019-03-16T22:37:11.855Z,5.10
2019-03-16T22:39:41.092Z,5.00
2019-03-16T22:42:10.321Z,5.00
2019-03-16T22:44:39.531Z,5.00
2019-03-16T22:47:08.789Z,5.10
2019-03-16T22:49:38.139Z,5.10
2019-03-16T22:52:07.434Z,5.20
2019-03-16T22:54:36.653Z,5.20
2019-03-16T22:57:05.818Z,5.10
2019-03-16T22:59:35.007Z,4.90
2019-03-16T23:02:05.205Z,4.90
2019-03-16T23:04:34.473Z,5.00
2019-03-16T23:07:03.654Z,4.90
2019-03-16T23:09:33.375Z,5.00
2019-03-16T23:12:02.546Z,5.00
2019-03-16T23:14:31.750Z,4.90
2019-03-16T23:17:01.071Z,4.90
2019-03-16T23:19:30.247Z,5.00
2019-03-16T23:21:59.542Z,4.90
2019-03-16T23:24:28.747Z,4.90
2019-03-16T23:26:57.998Z,4.90
2019-03-16T23:29:27.145Z,4.90
2019-03-16T23:31:56.287Z,4.90
2019-03-16T23:34:25.536Z,4.90
2019-03-16T23:36:54.824Z,5.00
2019-03-16T23:39:24.061Z,5.00
2019-03-16T23:41:53.233Z,4.90
2019-03-16T23:44:22.473Z,5.00
2019-03-16T23:46:51.599Z,4.90
2019-03-16T23:49:20.797Z,5.00
2019-03-16T23:51:49.995Z,5.00
2019-03-16T23:54:19.169Z,4.90
2019-03-16T23:56:48.340Z,4.80
2019-03-16T23:59:17.515Z,4.70
